createdAt,value
2018-12-03T00:00:51.907Z,90.43
2018-12-03T00:03:21.006Z,82.53
2018-12-03T00:05:49.724Z,85.33
2018-12-03T00:08:18.412Z,86.13
2018-12-03T00:10:47.364Z,90.33
2018-12-03T00:13:16.007Z,78.53
2018-12-03T00:15:44.931Z,74.10
2018-12-03T00:18:13.636Z,76.17
2018-12-03T00:20:42.311Z,77.87
2018-12-03T00:23:11.031Z,78.60
2018-12-03T00:25:40.016Z,75.73
2018-12-03T00:28:08.700Z,85.93
2018-12-03T00:30:37.681Z,78.10
2018-12-03T00:33:06.362Z,78.83
2018-12-03T00:35:35.401Z,81.47
2018-12-03T00:38:04.095Z,69.77
2018-12-03T00:40:32.854Z,76.27
2018-12-03T00:43:01.543Z,74.27
2018-12-03T00:45:30.449Z,66.93
2018-12-03T00:47:59.087Z,65.27
2018-12-03T00:50:27.727Z,66.93
2018-12-03T00:52:56.356Z,64.30
2018-12-03T00:55:25.298Z,71.40
2018-12-03T00:57:53.910Z,62.07
2018-12-03T01:00:22.774Z,63.83
2018-12-03T01:02:51.385Z,62.60
2018-12-03T01:05:20.019Z,58.30
2018-12-03T01:07:48.589Z,59.63
2018-12-03T01:10:17.298Z,55.90
2018-12-03T01:12:45.879Z,54.80
2018-12-03T01:15:14.815Z,55.47
2018-12-03T01:17:43.399Z,57.07
2018-12-03T01:20:12.699Z,57.47
2018-12-03T01:22:41.384Z,55.37
2018-12-03T01:25:10.031Z,56.17
2018-12-03T01:27:38.653Z,57.90
2018-12-03T01:30:10.753Z,58.27
2018-12-03T01:32:39.772Z,58.37
2018-12-03T01:35:09.839Z,55.87
2018-12-03T01:37:38.659Z,54.70
2018-12-03T01:40:11.029Z,51.40
2018-12-03T01:42:39.928Z,59.40
2018-12-03T01:45:10.772Z,53.13
2018-12-03T01:47:39.369Z,50.43
2018-12-03T01:50:12.227Z,57.17
2018-12-03T01:52:40.817Z,57.27
2018-12-03T01:55:10.476Z,50.20
2018-12-03T01:57:39.120Z,47.03
2018-12-03T02:00:15.229Z,49.37
2018-12-03T02:02:43.957Z,47.07
2018-12-03T02:05:13.171Z,50.27
2018-12-03T02:07:41.756Z,39.17
2018-12-03T02:10:13.319Z,42.47
2018-12-03T02:12:41.882Z,40.50
2018-12-03T02:15:11.918Z,38.87
2018-12-03T02:17:40.712Z,38.73
2018-12-03T02:20:11.645Z,34.10
2018-12-03T02:22:40.250Z,37.97
2018-12-03T02:25:09.845Z,36.37
2018-12-03T02:27:38.433Z,38.40
2018-12-03T02:30:11.607Z,32.73
2018-12-03T02:32:40.696Z,32.33
2018-12-03T02:35:10.698Z,31.10
2018-12-03T02:37:39.588Z,28.63
2018-12-03T02:40:17.267Z,31.77
2018-12-03T02:42:45.895Z,28.33
2018-12-03T02:45:15.309Z,28.23
2018-12-03T02:47:43.903Z,27.83
2018-12-03T02:50:13.826Z,28.87
2018-12-03T02:52:42.448Z,26.67
2018-12-03T02:55:12.062Z,24.50
2018-12-03T02:57:40.633Z,26.60
2018-12-03T03:00:13.639Z,22.83
2018-12-03T03:02:42.731Z,23.70
2018-12-03T03:05:12.444Z,25.70
2018-12-03T03:07:41.017Z,23.97
2018-12-03T03:10:12.921Z,22.93
2018-12-03T03:12:41.557Z,20.40
2018-12-03T03:15:12.537Z,23.53
2018-12-03T03:17:41.134Z,23.23
2018-12-03T03:20:11.990Z,22.03
2018-12-03T03:22:40.609Z,23.70
2018-12-03T03:25:10.181Z,20.93
2018-12-03T03:27:38.799Z,22.87
2018-12-03T03:30:12.098Z,20.53
2018-12-03T03:32:41.292Z,20.73
2018-12-03T03:35:11.444Z,20.40
2018-12-03T03:37:40.037Z,21.47
2018-12-03T03:40:11.498Z,21.13
2018-12-03T03:42:40.075Z,19.77
2018-12-03T03:45:19.844Z,22.13
2018-12-03T03:47:48.407Z,20.90
2018-12-03T03:50:17.212Z,20.53
2018-12-03T03:52:45.770Z,18.03
2018-12-03T03:55:14.387Z,23.57
2018-12-03T03:57:43.027Z,20.67
2018-12-03T04:00:13.618Z,20.57
2018-12-03T04:02:42.247Z,23.87
2018-12-03T04:05:11.949Z,22.70
2018-12-03T04:07:41.130Z,23.43
2018-12-03T04:10:10.899Z,25.77
2018-12-03T04:12:40.905Z,25.20
2018-12-03T04:15:11.830Z,20.53
2018-12-03T04:17:40.410Z,20.30
2018-12-03T04:20:14.210Z,21.13
2018-12-03T04:22:43.184Z,21.77
2018-12-03T04:25:12.307Z,22.97
2018-12-03T04:27:40.969Z,23.50
2018-12-03T04:30:17.034Z,20.67
2018-12-03T04:32:45.686Z,22.50
2018-12-03T04:35:14.662Z,21.40
2018-12-03T04:37:44.013Z,20.83
2018-12-03T04:40:16.650Z,23.83
2018-12-03T04:42:45.236Z,23.90
2018-12-03T04:45:15.073Z,20.03
2018-12-03T04:47:43.667Z,20.73
2018-12-03T04:50:15.549Z,22.27
2018-12-03T04:52:44.151Z,22.53
2018-12-03T04:55:13.997Z,21.00
2018-12-03T04:57:42.576Z,23.10
2018-12-03T05:00:13.617Z,24.47
2018-12-03T05:02:42.487Z,25.20
2018-12-03T05:05:11.563Z,27.20
2018-12-03T05:07:40.161Z,25.67
2018-12-03T05:10:12.213Z,27.20
2018-12-03T05:12:40.871Z,27.73
2018-12-03T05:15:10.792Z,25.27
2018-12-03T05:17:39.558Z,28.27
2018-12-03T05:20:09.746Z,25.57
2018-12-03T05:22:38.502Z,26.73
2018-12-03T05:25:08.795Z,26.33
2018-12-03T05:27:37.431Z,29.73
2018-12-03T05:30:11.353Z,27.43
2018-12-03T05:32:40.407Z,31.37
2018-12-03T05:35:14.178Z,29.23
2018-12-03T05:37:42.796Z,33.23
2018-12-03T05:40:15.683Z,30.17
2018-12-03T05:42:44.412Z,34.87
2018-12-03T05:45:13.015Z,36.63
2018-12-03T05:47:41.654Z,37.63
2018-12-03T05:50:11.679Z,44.90
2018-12-03T05:52:40.328Z,51.33
2018-12-03T05:55:10.462Z,59.63
2018-12-03T05:57:38.985Z,65.83
2018-12-03T06:00:16.594Z,65.90
2018-12-03T06:02:45.223Z,60.40
2018-12-03T06:05:14.213Z,60.23
2018-12-03T06:07:42.785Z,55.67
2018-12-03T06:10:15.663Z,57.33
2018-12-03T06:12:44.198Z,55.43
2018-12-03T06:15:14.230Z,51.47
2018-12-03T06:17:42.754Z,53.17
2018-12-03T06:20:13.609Z,40.37
2018-12-03T06:22:42.259Z,43.27
2018-12-03T06:25:12.246Z,44.27
2018-12-03T06:27:40.805Z,46.90
2018-12-03T06:30:16.804Z,50.33
2018-12-03T06:32:45.431Z,49.70
2018-12-03T06:35:15.137Z,45.40
2018-12-03T06:37:43.728Z,40.80
2018-12-03T06:40:15.620Z,38.27
2018-12-03T06:42:44.132Z,38.73
2018-12-03T06:45:15.086Z,40.13
2018-12-03T06:47:52.258Z,36.50
2018-12-03T06:50:21.261Z,37.33
2018-12-03T06:52:49.821Z,40.10
2018-12-03T06:55:18.429Z,37.67
2018-12-03T06:57:46.975Z,39.30
2018-12-03T07:00:17.085Z,40.13
2018-12-03T07:02:45.795Z,39.17
2018-12-03T07:05:14.410Z,42.43
2018-12-03T07:07:44.327Z,38.73
2018-12-03T07:10:20.778Z,38.03
2018-12-03T07:12:52.207Z,38.97
2018-12-03T07:15:22.233Z,43.23
2018-12-03T07:17:52.551Z,40.97
2018-12-03T07:20:23.666Z,39.57
2018-12-03T07:22:52.641Z,42.33
2018-12-03T07:25:21.728Z,43.37
2018-12-03T07:27:50.917Z,39.33
2018-12-03T07:30:21.673Z,40.33
2018-12-03T07:32:50.923Z,40.17
2018-12-03T07:35:20.394Z,38.97
2018-12-03T07:37:50.072Z,41.47
2018-12-03T07:40:18.770Z,42.00
2018-12-03T07:42:47.497Z,39.80
2018-12-03T07:45:19.089Z,39.00
2018-12-03T07:47:47.713Z,41.10
2018-12-03T07:50:17.882Z,42.73
2018-12-03T07:52:47.164Z,43.70
2018-12-03T07:55:18.201Z,44.27
2018-12-03T07:57:50.537Z,43.50
2018-12-03T08:00:23.444Z,45.27
2018-12-03T08:02:52.393Z,46.77
2018-12-03T08:05:21.475Z,36.60
2018-12-03T08:07:50.124Z,45.00
2018-12-03T08:10:19.451Z,37.40
2018-12-03T08:12:49.019Z,42.20
2018-12-03T08:15:19.348Z,39.10
2018-12-03T08:17:53.903Z,40.07
2018-12-03T08:20:25.467Z,40.03
2018-12-03T08:22:56.659Z,41.07
2018-12-03T08:25:25.584Z,45.10
2018-12-03T08:27:54.235Z,43.20
2018-12-03T08:30:23.177Z,45.67
2018-12-03T08:32:51.828Z,50.43
2018-12-03T08:35:20.597Z,49.60
2018-12-03T08:37:49.228Z,54.43
2018-12-03T08:40:19.142Z,48.10
2018-12-03T08:42:49.514Z,54.83
2018-12-03T08:45:18.560Z,51.50
2018-12-03T08:47:47.918Z,50.03
2018-12-03T08:50:20.759Z,49.83
2018-12-03T08:52:50.079Z,52.50
2018-12-03T08:55:19.236Z,46.90
2018-12-03T08:57:47.895Z,46.27
2018-12-03T09:00:32.272Z,45.60
2018-12-03T09:03:04.360Z,42.83
2018-12-03T09:05:35.329Z,43.30
2018-12-03T09:08:03.893Z,41.30
2018-12-03T09:10:32.799Z,49.40
2018-12-03T09:13:08.446Z,48.93
2018-12-03T09:15:37.149Z,48.87
2018-12-03T09:18:05.670Z,53.67
2018-12-03T09:20:34.417Z,52.40
2018-12-03T09:23:03.055Z,52.20
2018-12-03T09:25:31.716Z,55.20
2018-12-03T09:28:00.258Z,56.63
2018-12-03T09:30:29.083Z,44.77
2018-12-03T09:32:57.624Z,42.73
2018-12-03T09:35:26.562Z,44.03
2018-12-03T09:37:55.106Z,60.00
2018-12-03T09:40:27.776Z,69.30
2018-12-03T09:42:56.354Z,54.70
2018-12-03T09:45:24.896Z,57.47
2018-12-03T09:47:57.418Z,58.50
2018-12-03T09:50:27.255Z,56.07
2018-12-03T09:52:56.151Z,60.83
2018-12-03T09:55:26.097Z,54.87
2018-12-03T09:58:27.341Z,64.87
2018-12-03T10:00:55.917Z,53.10
2018-12-03T10:03:27.629Z,66.30
2018-12-03T10:05:58.520Z,46.27
2018-12-03T10:08:29.562Z,50.80
2018-12-03T10:10:59.837Z,65.20
2018-12-03T10:13:29.267Z,61.03
2018-12-03T10:15:57.838Z,57.97
2018-12-03T10:18:26.404Z,45.57
2018-12-03T10:20:57.634Z,66.63
2018-12-03T10:23:26.154Z,51.27
2018-12-03T10:25:56.026Z,56.93
2018-12-03T10:28:25.100Z,65.37
2018-12-03T10:30:55.224Z,60.80
2018-12-03T10:33:29.750Z,44.37
2018-12-03T10:35:59.422Z,48.30
2018-12-03T10:38:30.392Z,47.90
2018-12-03T10:41:09.295Z,51.70
2018-12-03T10:43:37.997Z,49.20
2018-12-03T10:46:08.362Z,47.07
2018-12-03T10:48:36.969Z,51.93
2018-12-03T10:51:10.792Z,37.27
2018-12-03T10:53:39.411Z,43.97
2018-12-03T10:56:08.002Z,35.37
2018-12-03T10:58:38.133Z,28.47
2018-12-03T11:01:13.736Z,23.07
2018-12-03T11:03:59.918Z,26.30
2018-12-03T11:06:28.678Z,26.17
2018-12-03T11:08:57.257Z,23.73
2018-12-03T11:11:26.062Z,24.13
2018-12-03T11:13:54.705Z,29.37
2018-12-03T11:16:28.375Z,28.27
2018-12-03T11:18:57.177Z,32.80
2018-12-03T11:21:26.462Z,33.87
2018-12-03T11:23:55.042Z,29.70
2018-12-03T11:26:30.958Z,31.87
2018-12-03T11:28:59.524Z,28.43
2018-12-03T11:31:29.590Z,30.27
2018-12-03T11:33:58.154Z,28.47
2018-12-03T11:36:30.622Z,32.33
2018-12-03T11:40:12.609Z,32.00
2018-12-03T11:42:41.407Z,41.73
2018-12-03T11:45:10.654Z,41.33
2018-12-03T11:47:39.194Z,44.10
2018-12-03T11:50:10.743Z,46.80
2018-12-03T11:52:39.299Z,54.80
2018-12-03T11:55:08.520Z,58.53
2018-12-03T11:57:37.098Z,48.77
2018-12-03T12:00:09.303Z,49.83
2018-12-03T12:02:37.866Z,53.80
2018-12-03T12:05:07.457Z,52.60
2018-12-03T12:07:42.201Z,48.20
2018-12-03T12:10:06.098Z,42.40
2018-12-03T12:12:34.916Z,47.73
2018-12-03T12:15:03.569Z,42.97
2018-12-03T12:17:32.490Z,44.43
2018-12-03T12:20:01.116Z,46.77
2018-12-03T12:22:29.971Z,49.80
2018-12-03T12:24:58.504Z,42.60
2018-12-03T12:27:27.575Z,50.83
2018-12-03T12:29:56.122Z,48.50
2018-12-03T12:32:24.684Z,47.17
2018-12-03T12:34:53.580Z,49.57
2018-12-03T12:37:22.515Z,48.23
2018-12-03T12:39:51.321Z,44.40
2018-12-03T12:42:20.115Z,48.27
2018-12-03T12:44:48.749Z,42.80
2018-12-03T12:47:17.580Z,39.20
2018-12-03T12:49:46.212Z,51.80
2018-12-03T12:52:15.181Z,45.87
2018-12-03T12:54:43.788Z,41.47
2018-12-03T12:57:12.536Z,41.33
2018-12-03T12:59:41.184Z,47.73
2018-12-03T13:02:10.908Z,50.47
2018-12-03T13:04:39.459Z,48.97
2018-12-03T13:07:08.018Z,50.10
2018-12-03T13:09:37.458Z,45.17
2018-12-03T13:12:06.835Z,42.63
2018-12-03T13:14:35.344Z,41.33
2018-12-03T13:17:03.987Z,46.03
2018-12-03T13:19:32.569Z,42.37
2018-12-03T13:22:01.757Z,43.40
2018-12-03T13:24:30.310Z,43.43
2018-12-03T13:26:59.074Z,46.10
2018-12-03T13:29:27.615Z,45.07
2018-12-03T13:31:56.476Z,47.53
2018-12-03T13:34:25.059Z,47.53
2018-12-03T13:36:53.635Z,52.63
2018-12-03T13:39:23.107Z,53.23
2018-12-03T13:41:50.760Z,55.33
2018-12-03T13:44:19.340Z,54.90
2018-12-03T13:46:48.182Z,62.17
2018-12-03T13:49:16.711Z,56.03
2018-12-03T13:51:45.573Z,62.27
2018-12-03T13:54:14.096Z,59.80
2018-12-03T13:56:42.963Z,62.00
2018-12-03T13:59:11.733Z,61.93
2018-12-03T14:01:40.409Z,60.10
2018-12-03T14:04:12.636Z,58.47
2018-12-03T14:06:50.113Z,56.00
2018-12-03T14:09:27.236Z,58.23
2018-12-03T14:12:04.967Z,48.87
2018-12-03T14:14:51.495Z,52.70
2018-12-03T14:17:26.801Z,49.97
2018-12-03T14:19:57.739Z,50.93
2018-12-03T14:22:34.245Z,52.07
2018-12-03T14:25:02.790Z,45.60
2018-12-03T14:27:31.686Z,52.33
2018-12-03T14:30:00.276Z,50.23
2018-12-03T14:32:29.061Z,46.83
2018-12-03T14:34:57.608Z,53.30
2018-12-03T14:37:26.577Z,54.07
2018-12-03T14:39:55.360Z,46.90
2018-12-03T14:42:24.063Z,45.00
2018-12-03T14:44:52.809Z,37.77
2018-12-03T14:47:21.625Z,39.87
2018-12-03T14:49:50.157Z,36.37
2018-12-03T14:52:18.688Z,37.13
2018-12-03T14:54:47.465Z,39.60
2018-12-03T14:57:15.993Z,40.27
2018-12-03T14:59:44.562Z,40.10
2018-12-03T15:02:13.141Z,41.60
2018-12-03T15:04:41.781Z,41.47
2018-12-03T15:07:10.589Z,38.97
2018-12-03T15:09:39.381Z,41.20
2018-12-03T15:12:08.558Z,38.30
2018-12-03T15:14:37.650Z,38.60
2018-12-03T15:17:06.311Z,41.33
2018-12-03T15:19:37.110Z,35.63
2018-12-03T15:22:06.664Z,32.93
2018-12-03T15:24:35.440Z,33.90
2018-12-03T15:27:03.988Z,33.57
2018-12-03T15:29:32.564Z,38.30
2018-12-03T15:32:01.164Z,34.57
2018-12-03T15:34:29.955Z,38.10
2018-12-03T15:36:58.671Z,35.90
2018-12-03T15:39:27.292Z,35.33
2018-12-03T15:41:56.228Z,35.27
2018-12-03T15:44:24.803Z,29.77
2018-12-03T15:46:53.968Z,27.43
2018-12-03T15:49:24.016Z,29.90
2018-12-03T15:51:52.637Z,32.97
2018-12-03T15:54:21.218Z,36.27
2018-12-03T15:56:49.784Z,34.30
2018-12-03T15:59:18.648Z,35.80
2018-12-03T16:01:47.427Z,26.17
2018-12-03T16:04:16.131Z,31.60
2018-12-03T16:06:44.869Z,37.70
2018-12-03T16:09:14.280Z,41.63
2018-12-03T16:11:42.872Z,33.97
2018-12-03T16:14:11.798Z,37.50
2018-12-03T16:16:40.956Z,30.00
2018-12-03T16:19:09.714Z,31.33
2018-12-03T16:21:38.266Z,37.00
2018-12-03T16:24:07.383Z,37.57
2018-12-03T16:26:36.246Z,37.70
2018-12-03T16:29:05.024Z,31.50
2018-12-03T16:31:33.758Z,34.70
2018-12-03T16:34:02.770Z,34.17
2018-12-03T16:36:31.733Z,27.73
2018-12-03T16:39:00.569Z,29.60
2018-12-03T16:41:29.532Z,32.40
2018-12-03T16:43:58.549Z,38.07
2018-12-03T16:46:27.407Z,37.23
2018-12-03T16:48:56.709Z,33.50
2018-12-03T16:51:25.563Z,34.60
2018-12-03T16:53:55.101Z,31.53
2018-12-03T16:56:23.966Z,34.17
2018-12-03T16:58:52.943Z,39.97
2018-12-03T17:01:22.016Z,50.53
2018-12-03T17:03:51.114Z,63.00
2018-12-03T17:06:19.830Z,61.60
2018-12-03T17:08:48.590Z,53.70
2018-12-03T17:11:17.275Z,49.37
2018-12-03T17:13:46.329Z,41.37
2018-12-03T17:16:15.067Z,44.27
2018-12-03T17:18:44.106Z,43.70
2018-12-03T17:21:17.532Z,44.13
2018-12-03T17:23:56.957Z,44.67
2018-12-03T17:26:26.190Z,39.63
2018-12-03T17:28:55.109Z,42.47
2018-12-03T17:31:23.699Z,34.63
2018-12-03T17:33:52.723Z,31.93
2018-12-03T17:36:21.372Z,31.07
2018-12-03T17:38:50.610Z,30.80
2018-12-03T17:41:19.442Z,30.87
2018-12-03T17:43:48.396Z,26.70
2018-12-03T17:46:17.232Z,25.53
2018-12-03T17:48:45.926Z,26.10
2018-12-03T17:51:14.717Z,25.13
2018-12-03T17:53:43.543Z,27.13
2018-12-03T17:56:12.495Z,29.07
2018-12-03T17:58:41.516Z,30.77
2018-12-03T18:01:16.848Z,38.47
2018-12-03T18:03:46.169Z,31.10
2018-12-03T18:06:17.156Z,32.90
2018-12-03T18:08:43.788Z,29.57
2018-12-03T18:11:12.580Z,29.03
2018-12-03T18:13:41.627Z,29.97
2018-12-03T18:16:10.258Z,30.80
2018-12-03T18:18:38.889Z,29.50
2018-12-03T18:21:08.137Z,34.47
2018-12-03T18:23:36.908Z,30.53
2018-12-03T18:26:05.941Z,30.63
2018-12-03T18:28:35.042Z,32.00
2018-12-03T18:31:03.949Z,33.30
2018-12-03T18:33:33.294Z,33.00
2018-12-03T18:36:02.022Z,38.53
2018-12-03T18:38:30.920Z,37.80
2018-12-03T18:41:03.368Z,38.27
2018-12-03T18:43:29.223Z,34.83
2018-12-03T18:45:58.070Z,38.43
2018-12-03T18:48:26.782Z,43.37
2018-12-03T18:50:56.353Z,52.43
2018-12-03T18:53:27.116Z,54.13
2018-12-03T18:55:55.865Z,59.03
2018-12-03T18:58:46.621Z,72.13
2018-12-03T19:01:15.286Z,70.30
2018-12-03T19:03:44.513Z,66.70
2018-12-03T19:06:13.586Z,61.40
2018-12-03T19:08:42.945Z,57.27
2018-12-03T19:11:12.765Z,58.17
2018-12-03T19:13:41.974Z,56.47
2018-12-03T19:16:11.243Z,56.03
2018-12-03T19:18:40.845Z,46.60
2018-12-03T19:21:09.897Z,53.13
2018-12-03T19:23:38.793Z,47.70
2018-12-03T19:26:09.090Z,55.43
2018-12-03T19:28:38.792Z,62.80
2018-12-03T19:31:07.633Z,57.23
2018-12-03T19:33:36.949Z,60.70
2018-12-03T19:36:05.643Z,63.33
2018-12-03T19:38:34.682Z,63.87
2018-12-03T19:41:03.371Z,66.73
2018-12-03T19:43:32.540Z,59.33
2018-12-03T19:46:01.322Z,63.07
2018-12-03T19:48:30.694Z,60.03
2018-12-03T19:50:59.677Z,57.93
2018-12-03T19:53:28.744Z,75.57
2018-12-03T19:55:57.722Z,73.83
2018-12-03T19:58:30.042Z,66.10
2018-12-03T20:00:58.803Z,63.13
2018-12-03T20:03:28.481Z,61.53
2018-12-03T20:05:56.466Z,61.73
2018-12-03T20:08:25.272Z,57.80
2018-12-03T20:10:54.062Z,65.77
2018-12-03T20:13:22.864Z,66.00
2018-12-03T20:15:51.502Z,67.17
2018-12-03T20:18:20.884Z,67.23
2018-12-03T20:20:55.785Z,71.50
2018-12-03T20:23:29.112Z,78.80
2018-12-03T20:26:23.283Z,79.23
2018-12-03T20:29:13.317Z,80.57
2018-12-03T20:33:57.346Z,78.17
2018-12-03T20:37:40.319Z,85.73
2018-12-03T20:40:30.796Z,85.13
2018-12-03T20:43:07.658Z,101.07
2018-12-03T20:45:46.786Z,108.67
2018-12-03T20:48:17.163Z,118.77
2018-12-03T20:50:51.428Z,109.77
2018-12-03T20:53:26.210Z,101.37
2018-12-03T20:55:55.683Z,91.63
2018-12-03T20:58:24.443Z,71.87
2018-12-03T21:00:53.281Z,68.57
2018-12-03T21:03:22.257Z,67.87
2018-12-03T21:05:51.071Z,69.10
2018-12-03T21:08:19.984Z,67.60
2018-12-03T21:10:48.919Z,76.97
2018-12-03T21:13:18.916Z,78.57
2018-12-03T21:15:48.002Z,80.30
2018-12-03T21:18:16.841Z,85.13
2018-12-03T21:20:48.792Z,76.47
2018-12-03T21:23:17.659Z,72.60
2018-12-03T21:25:46.372Z,60.80
2018-12-03T21:28:15.243Z,59.63
2018-12-03T21:30:44.104Z,56.60
2018-12-03T21:33:12.984Z,63.60
2018-12-03T21:35:41.765Z,59.10
2018-12-03T21:38:10.594Z,63.23
2018-12-03T21:40:39.529Z,64.37
2018-12-03T21:43:08.922Z,65.97
2018-12-03T21:45:37.467Z,73.00
2018-12-03T21:48:06.211Z,84.30
2018-12-03T21:50:34.988Z,99.50
2018-12-03T21:53:03.770Z,103.17
2018-12-03T21:55:32.523Z,106.47
2018-12-03T21:58:02.490Z,108.77
2018-12-03T22:00:31.264Z,107.87
2018-12-03T22:03:00.075Z,100.00
2018-12-03T22:05:28.665Z,97.07
2018-12-03T22:07:57.461Z,91.27
2018-12-03T22:10:26.070Z,84.50
2018-12-03T22:12:54.688Z,86.77
2018-12-03T22:15:23.280Z,78.67
2018-12-03T22:17:52.180Z,86.20
2018-12-03T22:20:20.890Z,77.13
2018-12-03T22:22:49.546Z,79.57
2018-12-03T22:25:18.129Z,84.50
2018-12-03T22:27:46.922Z,77.10
2018-12-03T22:30:15.581Z,80.27
2018-12-03T22:32:44.194Z,85.20
2018-12-03T22:35:12.775Z,82.53
2018-12-03T22:37:41.585Z,85.83
2018-12-03T22:40:10.168Z,82.70
2018-12-03T22:42:39.109Z,82.10
2018-12-03T22:45:07.900Z,85.43
2018-12-03T22:47:36.839Z,79.03
2018-12-03T22:50:05.550Z,84.67
2018-12-03T22:52:34.614Z,81.13
2018-12-03T22:55:03.373Z,74.60
2018-12-03T22:57:32.370Z,86.40
2018-12-03T23:00:01.153Z,77.37
2018-12-03T23:02:30.294Z,74.03
2018-12-03T23:04:58.933Z,68.63
2018-12-03T23:07:27.877Z,69.47
2018-12-03T23:09:56.512Z,68.80
2018-12-03T23:12:25.236Z,68.20
2018-12-03T23:14:53.786Z,63.47
2018-12-03T23:17:22.392Z,60.13
2018-12-03T23:19:50.945Z,56.50
2018-12-03T23:22:19.554Z,60.80
2018-12-03T23:24:48.088Z,62.43
2018-12-03T23:27:17.032Z,56.63
2018-12-03T23:29:45.662Z,52.87
2018-12-03T23:32:14.633Z,52.67
2018-12-03T23:34:43.231Z,53.73
2018-12-03T23:37:11.814Z,53.47
2018-12-03T23:39:40.383Z,54.67
2018-12-03T23:42:09.251Z,52.47
2018-12-03T23:44:37.785Z,54.67
2018-12-03T23:47:06.652Z,64.37
2018-12-03T23:49:35.176Z,58.03
2018-12-03T23:52:04.099Z,59.03
2018-12-03T23:54:32.650Z,59.80
2018-12-03T23:57:01.274Z,61.43
2018-12-03T23:59:29.797Z,53.80
